Time;durP1;ratioP1;P1;durP2;ratioP2;P2;SDS_P1;SDS_P2;PMS_P1;PMS_P2;Temp;Humidity;BMP_temperature;BMP_pressure;BME280_temperature;BME280_humidity;BME280_pressure;Samples;Min_cycle;Max_cycle;Signal;HPM_P1;HPM_P2
2022/09/26 00:01:38;;;;;;;2.73;0.80;;;12.20;99.90;;;;;;5056488;28;20459;-72
2022/09/26 00:04:14;;;;;;;1.60;0.90;;;12.20;99.90;;;;;;5059273;28;20755;-72
2022/09/26 00:06:41;;;;;;;1.90;1.00;;;12.30;99.90;;;;;;5057022;28;20521;-72
2022/09/26 00:09:09;;;;;;;1.30;0.80;;;12.30;99.90;;;;;;5058830;28;20576;-72
2022/09/26 00:11:36;;;;;;;1.40;0.97;;;12.40;99.90;;;;;;5056858;28;20471;-72
2022/09/26 00:14:07;;;;;;;3.03;1.00;;;12.40;99.90;;;;;;5058579;28;20452;-72
2022/09/26 00:16:35;;;;;;;1.60;0.90;;;12.30;99.90;;;;;;5057275;28;20467;-72
2022/09/26 00:19:02;;;;;;;2.60;1.30;;;12.30;99.90;;;;;;5058762;28;20460;-72
2022/09/26 00:21:30;;;;;;;1.30;0.90;;;12.30;99.90;;;;;;5056460;28;20906;-71
2022/09/26 00:23:57;;;;;;;1.80;0.97;;;12.30;99.90;;;;;;5058379;28;20448;-71
2022/09/26 00:26:27;;;;;;;1.40;1.00;;;12.30;99.90;;;;;;5053392;28;20973;-72
2022/09/26 00:28:55;;;;;;;3.23;0.90;;;12.20;99.90;;;;;;5055753;28;20447;-72
2022/09/26 00:31:25;;;;;;;2.13;1.00;;;12.30;99.90;;;;;;5052597;28;20454;-72
2022/09/26 00:33:52;;;;;;;1.70;0.97;;;12.30;99.90;;;;;;5055802;28;20461;-72
2022/09/26 00:36:19;;;;;;;2.00;0.90;;;12.30;99.90;;;;;;5055872;28;20937;-72
2022/09/26 00:38:46;;;;;;;1.83;1.00;;;12.20;99.90;;;;;;5058950;28;20457;-72
2022/09/26 00:41:13;;;;;;;3.53;1.17;;;12.10;99.90;;;;;;5057570;28;20483;-71
2022/09/26 00:43:44;;;;;;;3.97;1.00;;;12.10;99.90;;;;;;5056541;28;20577;-72
2022/09/26 00:46:21;;;;;;;1.93;1.00;;;12.00;99.90;;;;;;5057328;28;20454;-72
2022/09/26 00:48:52;;;;;;;1.20;0.87;;;12.00;99.90;;;;;;5057160;28;20459;-72
2022/09/26 00:51:19;;;;;;;1.80;1.00;;;11.90;99.90;;;;;;5054904;28;20450;-72
2022/09/26 00:53:50;;;;;;;2.13;1.00;;;11.90;99.90;;;;;;5057338;28;20876;-72
2022/09/26 00:56:22;;;;;;;1.77;0.90;;;11.90;99.90;;;;;;5056279;28;20483;-72
2022/09/26 00:58:55;;;;;;;2.50;1.07;;;11.90;99.90;;;;;;5058707;28;20474;-72
2022/09/26 01:01:23;;;;;;;3.07;1.00;;;11.80;99.90;;;;;;5055659;28;20466;-71
2022/09/26 01:03:51;;;;;;;1.23;0.90;;;11.80;99.90;;;;;;5057657;28;20515;-72
2022/09/26 01:06:20;;;;;;;2.20;1.00;;;11.70;99.90;;;;;;5055452;28;20739;-72
2022/09/26 01:08:52;;;;;;;2.63;1.00;;;11.70;99.90;;;;;;5057262;28;20455;-71
2022/09/26 01:11:20;;;;;;;2.03;1.00;;;11.70;99.90;;;;;;5055830;28;20446;-72
2022/09/26 01:13:48;;;;;;;1.50;0.97;;;11.70;99.90;;;;;;5057257;28;20455;-71
2022/09/26 01:16:16;;;;;;;2.73;0.97;;;11.70;99.90;;;;;;5053914;28;20483;-72
2022/09/26 01:18:44;;;;;;;2.47;0.90;;;11.60;99.90;;;;;;5057978;28;20946;-71
2022/09/26 01:21:33;;;;;;;1.47;0.73;;;11.60;99.90;;;;;;5057467;28;20760;-72
2022/09/26 01:24:38;;;;;;;2.90;0.90;;;11.50;99.90;;;;;;5058013;28;20719;-71
2022/09/26 01:27:43;;;;;;;2.23;0.70;;;11.40;99.90;;;;;;5054516;28;20469;-71
2022/09/26 01:30:15;;;;;;;1.60;0.93;;;11.40;99.90;;;;;;5033806;28;20447;-71
2022/09/26 01:33:14;;;;;;;4.97;1.20;;;11.40;99.90;;;;;;5054848;28;20733;-71
2022/09/26 01:35:57;;;;;;;2.17;1.00;;;11.30;99.90;;;;;;5057382;28;20494;-72
2022/09/26 01:38:34;;;;;;;2.30;1.20;;;11.40;99.90;;;;;;5054456;28;20471;-72
2022/09/26 01:41:11;;;;;;;2.37;0.80;;;11.40;99.90;;;;;;5057207;28;20453;-72
2022/09/26 01:43:48;;;;;;;4.30;0.90;;;11.30;99.90;;;;;;5057589;28;20919;-72
2022/09/26 01:46:24;;;;;;;1.97;1.07;;;11.30;99.90;;;;;;5054802;28;20443;-72
2022/09/26 01:48:55;;;;;;;1.10;0.80;;;11.30;99.90;;;;;;5057583;28;20466;-72
2022/09/26 01:51:29;;;;;;;1.47;0.90;;;11.30;99.90;;;;;;5053923;28;20566;-72
2022/09/26 01:54:06;;;;;;;2.40;1.13;;;11.20;99.90;;;;;;5057101;28;20488;-72
2022/09/26 01:56:37;;;;;;;1.53;0.90;;;11.20;99.90;;;;;;5053095;28;20879;-72
2022/09/26 01:59:09;;;;;;;2.27;0.90;;;11.20;99.90;;;;;;5057082;28;20454;-73
2022/09/26 02:01:41;;;;;;;1.37;1.00;;;11.20;99.90;;;;;;5054594;28;20464;-72
2022/09/26 02:04:11;;;;;;;1.63;1.00;;;11.10;99.90;;;;;;5057069;28;20566;-72
2022/09/26 02:06:44;;;;;;;2.67;1.10;;;11.00;99.90;;;;;;5054372;28;20456;-72
2022/09/26 02:09:14;;;;;;;2.40;0.90;;;11.00;99.90;;;;;;5057035;28;20545;-72
2022/09/26 02:11:45;;;;;;;1.80;1.00;;;11.00;99.90;;;;;;5054673;28;20439;-71
2022/09/26 02:14:17;;;;;;;1.77;1.00;;;11.00;99.90;;;;;;5055353;28;20447;-72
2022/09/26 02:16:48;;;;;;;3.00;0.90;;;11.00;99.90;;;;;;5052847;28;20478;-72
2022/09/26 02:19:18;;;;;;;1.57;0.90;;;11.00;99.90;;;;;;5056390;28;20447;-72
2022/09/26 02:21:46;;;;;;;1.87;0.90;;;11.00;99.90;;;;;;5053873;28;20558;-72
2022/09/26 02:24:13;;;;;;;1.33;0.80;;;11.00;99.90;;;;;;5056410;28;20453;-72
2022/09/26 02:26:41;;;;;;;1.40;0.90;;;11.10;99.90;;;;;;5054854;28;20451;-71
2022/09/26 02:29:08;;;;;;;1.10;0.83;;;11.10;99.90;;;;;;5057151;28;20474;-72
2022/09/26 02:31:41;;;;;;;2.40;0.90;;;11.10;99.90;;;;;;5054709;28;20470;-72
2022/09/26 02:34:10;;;;;;;1.70;0.90;;;11.10;99.90;;;;;;5057257;28;20451;-72
2022/09/26 02:36:37;;;;;;;2.40;1.10;;;11.10;99.90;;;;;;5056880;28;20922;-72
2022/09/26 02:39:04;;;;;;;2.13;0.87;;;11.20;99.90;;;;;;5063099;28;20447;-72
2022/09/26 02:41:45;;;;;;;1.47;0.90;;;11.20;99.90;;;;;;5060870;28;20509;-73
2022/09/26 02:44:29;;;;;;;2.80;1.10;;;11.20;99.90;;;;;;5063794;28;20936;-72
2022/09/26 02:47:12;;;;;;;1.63;0.97;;;11.20;99.90;;;;;;5063992;28;20470;-72
2022/09/26 02:49:53;;;;;;;5.90;1.20;;;11.20;99.90;;;;;;5063760;28;20493;-72
2022/09/26 02:52:34;;;;;;;1.60;0.90;;;11.20;99.90;;;;;;5061711;28;20458;-72
2022/09/26 02:55:12;;;;;;;2.17;0.87;;;11.20;99.90;;;;;;5063450;28;20566;-72
2022/09/26 02:57:46;;;;;;;1.40;0.90;;;11.20;99.90;;;;;;5060843;28;20753;-72
2022/09/26 03:00:17;;;;;;;2.50;0.90;;;11.20;99.90;;;;;;5063941;28;20866;-72
2022/09/26 03:02:50;;;;;;;3.60;0.90;;;11.10;99.90;;;;;;5061575;28;20753;-72
2022/09/26 03:05:21;;;;;;;1.20;0.90;;;11.10;99.90;;;;;;5063337;28;20447;-72
2022/09/26 03:07:55;;;;;;;1.43;0.80;;;11.10;99.90;;;;;;5060909;28;20883;-72
2022/09/26 03:10:25;;;;;;;2.73;1.00;;;11.10;99.90;;;;;;5063403;28;20454;-72
2022/09/26 03:12:52;;;;;;;2.10;0.90;;;11.10;99.90;;;;;;5060323;28;20893;-71
2022/09/26 03:15:21;;;;;;;1.13;0.80;;;11.10;99.90;;;;;;5063013;28;20743;-71
2022/09/26 03:17:52;;;;;;;1.70;0.80;;;11.10;99.90;;;;;;5062785;28;20486;-72
2022/09/26 03:20:24;;;;;;;2.13;1.00;;;11.00;99.90;;;;;;5063093;28;20455;-72
2022/09/26 03:22:51;;;;;;;1.70;1.00;;;11.00;99.90;;;;;;5061240;28;20455;-72
2022/09/26 03:25:21;;;;;;;1.60;0.90;;;11.00;99.90;;;;;;5062783;28;20435;-72
2022/09/26 03:27:50;;;;;;;2.37;1.00;;;11.00;99.90;;;;;;5061236;28;20455;-72
2022/09/26 03:30:19;;;;;;;1.33;0.80;;;10.90;99.90;;;;;;5062508;28;20455;-72
2022/09/26 03:32:46;;;;;;;1.40;0.70;;;10.90;99.90;;;;;;5061079;28;20558;-72
2022/09/26 03:35:14;;;;;;;1.07;0.80;;;10.80;99.90;;;;;;5063121;28;20922;-72
2022/09/26 03:37:42;;;;;;;1.63;0.90;;;10.90;99.90;;;;;;5060930;28;20887;-72
2022/09/26 03:40:12;;;;;;;2.60;0.90;;;11.00;99.90;;;;;;5063203;28;20546;-72
2022/09/26 03:42:39;;;;;;;1.70;0.90;;;11.10;99.90;;;;;;5060637;28;20566;-73
2022/09/26 03:45:09;;;;;;;1.10;0.77;;;11.20;99.90;;;;;;5062970;28;20455;-70
2022/09/26 03:47:36;;;;;;;3.93;0.70;;;11.20;99.90;;;;;;5060046;28;20455;-71
2022/09/26 03:50:04;;;;;;;1.53;0.80;;;11.20;99.90;;;;;;5058218;28;20454;-71
2022/09/26 03:52:31;;;;;;;1.50;0.80;;;11.20;99.90;;;;;;5057935;28;20459;-73
2022/09/26 03:54:59;;;;;;;1.30;0.80;;;11.20;99.90;;;;;;5058588;28;20447;-72
2022/09/26 03:57:26;;;;;;;1.30;0.80;;;11.20;99.90;;;;;;5057617;28;20451;-71
2022/09/26 03:59:54;;;;;;;0.97;0.60;;;11.10;99.90;;;;;;5059445;28;20534;-71
2022/09/26 04:02:21;;;;;;;0.93;0.60;;;11.10;99.90;;;;;;5056972;28;20456;-71
2022/09/26 04:04:48;;;;;;;0.90;0.60;;;11.10;99.90;;;;;;5059188;28;20475;-72
2022/09/26 04:07:15;;;;;;;2.50;0.70;;;11.10;99.90;;;;;;5056476;28;20901;-71
2022/09/26 04:09:41;;;;;;;1.40;0.60;;;11.10;99.90;;;;;;5057905;28;20455;-71
2022/09/26 04:12:09;;;;;;;1.17;0.70;;;11.10;99.90;;;;;;5055340;28;20566;-71
2022/09/26 04:14:36;;;;;;;1.20;0.63;;;11.10;99.90;;;;;;5057725;28;20558;-72
2022/09/26 04:17:03;;;;;;;1.57;0.70;;;11.10;99.90;;;;;;5054145;28;20483;-72
2022/09/26 04:19:30;;;;;;;3.40;0.70;;;11.20;99.90;;;;;;5059360;28;20447;-72
2022/09/26 04:21:58;;;;;;;1.17;0.70;;;11.40;99.90;;;;;;5057800;28;20470;-73
2022/09/26 04:24:25;;;;;;;1.30;0.67;;;11.40;99.90;;;;;;5059519;28;20455;-72
2022/09/26 04:26:52;;;;;;;4.63;0.90;;;11.40;99.90;;;;;;5056492;28;20533;-73
2022/09/26 04:29:21;;;;;;;1.37;0.80;;;11.30;99.90;;;;;;5058796;28;20455;-73
2022/09/26 04:31:48;;;;;;;1.47;0.90;;;11.10;99.90;;;;;;5056051;28;20443;-72
2022/09/26 04:34:15;;;;;;;3.70;1.23;;;11.10;99.90;;;;;;5058137;28;20874;-72
2022/09/26 04:36:42;;;;;;;1.50;0.97;;;11.00;99.90;;;;;;5055465;28;20483;-73
2022/09/26 04:39:09;;;;;;;3.40;1.03;;;11.00;99.90;;;;;;5058804;28;20742;-72
2022/09/26 04:41:37;;;;;;;1.73;0.93;;;10.90;99.90;;;;;;5056040;28;21145;-73
2022/09/26 04:44:04;;;;;;;3.53;1.10;;;10.90;99.90;;;;;;5058587;28;20541;-73
2022/09/26 04:46:32;;;;;;;6.70;1.47;;;10.80;99.90;;;;;;5055877;28;20507;-72
2022/09/26 04:49:00;;;;;;;2.23;1.00;;;10.80;99.90;;;;;;5058514;28;20479;-73
2022/09/26 04:51:28;;;;;;;2.97;1.00;;;10.70;99.90;;;;;;5055208;28;20448;-72
2022/09/26 04:53:56;;;;;;;5.30;1.00;;;10.70;99.90;;;;;;5058263;28;20456;-73
2022/09/26 04:56:25;;;;;;;2.87;1.00;;;10.70;99.90;;;;;;5055552;28;20515;-73
2022/09/26 04:58:53;;;;;;;1.63;0.90;;;10.80;99.90;;;;;;5058189;28;20451;-72
2022/09/26 05:01:21;;;;;;;1.20;0.90;;;10.80;99.90;;;;;;5053915;28;20751;-72
2022/09/26 05:03:49;;;;;;;3.33;1.10;;;10.80;99.90;;;;;;5056217;28;20530;-72
2022/09/26 05:06:16;;;;;;;1.00;0.70;;;10.70;99.90;;;;;;5054514;28;20439;-72
2022/09/26 05:08:45;;;;;;;1.30;0.70;;;10.70;99.90;;;;;;5057340;28;20460;-73
2022/09/26 05:11:13;;;;;;;1.83;0.80;;;10.70;99.90;;;;;;5057629;28;20770;-73
2022/09/26 05:13:40;;;;;;;1.20;0.70;;;10.70;99.90;;;;;;5058143;28;20736;-73
2022/09/26 05:16:08;;;;;;;2.83;0.90;;;10.60;99.90;;;;;;5056631;28;20525;-73
2022/09/26 05:18:36;;;;;;;1.20;0.80;;;10.50;99.90;;;;;;5050864;28;20505;-73
2022/09/26 05:21:06;;;;;;;1.90;0.73;;;10.50;99.90;;;;;;5053564;28;20491;-73
2022/09/26 05:26:23;;;;;;;1.33;0.60;;;10.40;99.90;;;;;;5057348;28;20415;-72
2022/09/26 05:28:52;;;;;;;0.97;0.63;;;10.40;99.90;;;;;;5056964;28;20455;-73
2022/09/26 05:31:21;;;;;;;0.90;0.50;;;10.40;99.90;;;;;;5052262;28;20561;-73
2022/09/26 05:33:50;;;;;;;1.90;0.60;;;10.40;99.90;;;;;;5056231;28;20501;-72
2022/09/26 05:36:19;;;;;;;1.53;0.60;;;10.40;99.90;;;;;;5050069;28;20480;-73
2022/09/26 05:38:45;;;;;;;2.07;0.70;;;10.50;99.90;;;;;;5054297;28;20890;-73
2022/09/26 05:41:13;;;;;;;1.10;0.70;;;10.50;99.90;;;;;;5053139;28;20452;-73
2022/09/26 05:43:40;;;;;;;1.13;0.67;;;10.50;99.90;;;;;;5052915;28;20479;-72
2022/09/26 05:46:08;;;;;;;1.23;0.70;;;10.50;99.90;;;;;;5052660;28;20562;-72
2022/09/26 05:48:37;;;;;;;0.90;0.70;;;10.60;99.90;;;;;;5048803;28;20462;-72
2022/09/26 05:51:08;;;;;;;1.10;0.70;;;10.60;99.90;;;;;;5053778;28;20518;-72
2022/09/26 05:53:37;;;;;;;1.60;0.73;;;10.60;99.90;;;;;;5055424;28;20727;-72
2022/09/26 05:56:05;;;;;;;1.80;0.70;;;10.70;99.90;;;;;;5054728;28;20487;-72
2022/09/26 05:58:34;;;;;;;3.00;1.00;;;10.70;99.90;;;;;;5051759;28;20494;-74
2022/09/26 06:01:02;;;;;;;0.87;0.53;;;10.90;99.90;;;;;;5055302;28;20455;-73
2022/09/26 06:03:33;;;;;;;3.20;1.83;;;11.00;99.90;;;;;;5052516;28;20456;-73
2022/09/26 06:06:21;;;;;;;1.50;0.90;;;11.10;99.90;;;;;;5056163;28;20447;-73
2022/09/26 06:08:51;;;;;;;4.27;1.67;;;11.40;99.90;;;;;;5055471;28;20694;-72
2022/09/26 06:11:21;;;;;;;1.57;0.87;;;11.50;99.90;;;;;;5052800;28;20451;-73
2022/09/26 06:13:49;;;;;;;3.23;0.70;;;11.50;99.90;;;;;;5056487;28;20485;-73
2022/09/26 06:16:18;;;;;;;1.20;0.60;;;11.40;99.90;;;;;;5056424;28;20505;-74
2022/09/26 06:18:46;;;;;;;0.80;0.50;;;11.30;99.90;;;;;;5050808;28;20476;-74
2022/09/26 06:21:15;;;;;;;0.90;0.60;;;11.10;99.90;;;;;;5054342;28;20879;-74
2022/09/26 06:23:46;;;;;;;0.80;0.60;;;11.10;99.90;;;;;;5054753;28;20495;-74
2022/09/26 06:26:18;;;;;;;0.90;0.60;;;11.10;99.90;;;;;;5051466;28;20549;-73
2022/09/26 06:28:46;;;;;;;1.10;0.60;;;11.10;99.90;;;;;;5054805;28;20487;-73
2022/09/26 06:31:17;;;;;;;1.53;0.60;;;11.10;99.90;;;;;;5051697;28;20447;-72
2022/09/26 06:33:48;;;;;;;1.70;0.57;;;11.20;99.90;;;;;;5042899;28;20542;-73
2022/09/26 06:36:18;;;;;;;1.17;0.60;;;11.20;99.90;;;;;;5054653;28;20914;-72
2022/09/26 06:38:45;;;;;;;0.87;0.50;;;11.20;99.90;;;;;;5046721;28;20566;-71
2022/09/26 06:41:15;;;;;;;2.40;0.60;;;11.30;99.90;;;;;;5054719;28;20738;-72
2022/09/26 06:43:44;;;;;;;0.70;0.50;;;11.30;99.90;;;;;;5048284;28;20524;-72
2022/09/26 06:46:11;;;;;;;3.23;0.60;;;11.30;99.90;;;;;;5051263;28;20456;-71
2022/09/26 06:48:38;;;;;;;1.03;0.60;;;11.30;99.90;;;;;;5035916;28;20542;-72
2022/09/26 06:51:05;;;;;;;1.00;0.50;;;11.40;99.90;;;;;;5045153;28;20458;-72
2022/09/26 06:53:34;;;;;;;2.63;0.70;;;11.50;99.90;;;;;;5032850;28;20451;-72
2022/09/26 06:56:01;;;;;;;1.30;0.70;;;11.50;99.90;;;;;;5034581;28;20505;-72
2022/09/26 06:58:28;;;;;;;4.07;0.73;;;11.60;99.90;;;;;;5033443;28;20443;-71
2022/09/26 07:00:59;;;;;;;1.07;0.80;;;11.60;99.90;;;;;;5036285;28;20448;-71
2022/09/26 07:03:25;;;;;;;2.80;0.70;;;11.60;99.90;;;;;;5046633;28;20548;-71
2022/09/26 07:05:54;;;;;;;1.10;0.60;;;11.70;99.90;;;;;;5054135;28;20450;-71
2022/09/26 07:08:25;;;;;;;1.00;0.60;;;11.70;99.90;;;;;;5046332;28;20497;-73
2022/09/26 07:10:53;;;;;;;1.10;0.57;;;11.80;99.90;;;;;;5045761;28;20482;-73
2022/09/26 07:13:21;;;;;;;1.30;0.60;;;11.90;99.90;;;;;;5050668;28;20450;-73
2022/09/26 07:15:49;;;;;;;0.90;0.60;;;11.90;99.90;;;;;;5051403;28;20451;-72
2022/09/26 07:18:17;;;;;;;1.00;0.70;;;12.00;99.90;;;;;;5046274;28;20478;-73
2022/09/26 07:20:45;;;;;;;0.93;0.50;;;12.10;99.90;;;;;;5041221;28;20463;-73
2022/09/26 07:23:15;;;;;;;0.80;0.50;;;12.20;99.90;;;;;;5048177;28;20447;-76
2022/09/26 07:25:45;;;;;;;0.70;0.50;;;12.20;99.90;;;;;;5048257;28;20448;-73
2022/09/26 07:28:12;;;;;;;1.17;0.60;;;12.40;99.90;;;;;;5038167;28;20475;-73
2022/09/26 07:30:42;;;;;;;1.60;0.50;;;12.50;99.90;;;;;;5037795;28;20484;-71
2022/09/26 07:33:11;;;;;;;0.70;0.43;;;12.60;99.90;;;;;;5057093;28;20501;-71
2022/09/26 07:35:43;;;;;;;0.90;0.50;;;12.60;97.90;;;;;;5042949;28;20440;-72
2022/09/26 07:38:11;;;;;;;0.73;0.50;;;12.60;97.40;;;;;;5038416;28;20480;-71
2022/09/26 07:40:40;;;;;;;1.13;0.70;;;12.80;98.60;;;;;;5039139;28;20539;-72
2022/09/26 07:43:07;;;;;;;1.63;0.50;;;12.90;57.40;;;;;;5036755;28;20463;-72
2022/09/26 07:51:06;;;;;;;0.60;0.30;;;13.00;63.00;;;;;;5052273;28;20457;-72
2022/09/26 07:53:32;;;;;;;0.80;0.40;;;13.10;48.10;;;;;;5040759;28;20462;-72
2022/09/26 07:56:05;;;;;;;0.80;0.50;;;13.10;47.30;;;;;;5041888;28;20535;-72
2022/09/26 07:58:32;;;;;;;1.70;0.50;;;13.00;49.60;;;;;;5038033;28;21242;-72
2022/09/26 08:00:59;;;;;;;0.90;0.50;;;13.10;53.60;;;;;;5043726;28;20487;-72
2022/09/26 08:03:27;;;;;;;1.03;0.50;;;13.20;61.10;;;;;;5064939;28;20475;-73
2022/09/26 08:05:56;;;;;;;0.80;0.50;;;13.20;17.10;;;;;;5064818;28;20451;-72
2022/09/26 08:08:27;;;;;;;1.00;0.50;;;13.20;36.30;;;;;;5047660;28;20456;-73
2022/09/26 08:10:58;;;;;;;0.60;0.40;;;13.20;35.70;;;;;;5059587;28;20517;-72
2022/09/26 08:13:28;;;;;;;0.80;0.50;;;13.30;39.70;;;;;;5057611;28;20534;-72
2022/09/26 08:15:56;;;;;;;0.80;0.50;;;13.40;42.30;;;;;;5055648;28;20197;-73
2022/09/26 08:18:23;;;;;;;0.90;0.50;;;13.50;26.70;;;;;;5050541;28;20483;-72
2022/09/26 08:20:50;;;;;;;3.20;0.50;;;13.50;26.00;;;;;;5058263;28;20545;-72
2022/09/26 08:23:17;;;;;;;0.70;0.40;;;13.50;16.90;;;;;;5037952;28;20524;-72
2022/09/26 08:25:45;;;;;;;0.73;0.50;;;13.50;32.60;;;;;;5044525;28;21065;-72
2022/09/26 08:28:12;;;;;;;1.10;0.47;;;13.60;27.60;;;;;;5042582;28;20532;-75
2022/09/26 08:30:40;;;;;;;0.60;0.40;;;13.60;15.40;;;;;;5038417;28;20504;-73
2022/09/26 08:33:08;;;;;;;0.60;0.50;;;13.60;19.50;;;;;;5048360;28;20456;-73
2022/09/26 08:35:38;;;;;;;1.17;0.40;;;13.60;23.20;;;;;;5053973;28;20527;-72
2022/09/26 08:38:08;;;;;;;0.80;0.53;;;13.70;7.70;;;;;;5054069;28;20486;-72
2022/09/26 08:40:51;;;;;;;0.70;0.40;;;13.60;4.10;;;;;;5033975;28;20519;-73
2022/09/26 08:43:32;;;;;;;1.10;0.50;;;13.70;15.90;;;;;;5033534;28;20532;-73
2022/09/26 08:46:31;;;;;;;1.00;0.43;;;13.80;9.50;;;;;;5037423;28;20459;-72
2022/09/26 08:49:21;;;;;;;1.47;0.50;;;13.90;11.40;;;;;;5051232;28;20546;-72
2022/09/26 08:51:51;;;;;;;1.93;0.70;;;14.00;1.00;;;;;;5041651;28;20787;-73
2022/09/26 08:54:22;;;;;;;25.37;21.27;;;14.10;1.00;;;;;;5040085;28;21164;-73
2022/09/26 08:56:54;;;;;;;1.00;0.50;;;14.20;1.00;;;;;;5047800;28;20447;-72
2022/09/26 08:59:27;;;;;;;1.00;0.70;;;14.30;1.00;;;;;;5034707;28;20456;-72
2022/09/26 09:01:58;;;;;;;1.10;0.60;;;14.50;1.00;;;;;;5050953;28;20534;-73
2022/09/26 09:04:34;;;;;;;1.93;0.60;;;14.60;1.00;;;;;;5050801;28;21065;-72
2022/09/26 09:07:10;;;;;;;1.10;0.40;;;14.90;1.00;;;;;;5037873;28;20440;-73
2022/09/26 09:09:38;;;;;;;0.83;0.60;;;15.00;1.00;;;;;;5042668;28;20489;-72
2022/09/26 09:12:17;;;;;;;0.80;0.50;;;15.00;1.00;;;;;;5048946;28;20460;-73
2022/09/26 09:15:03;;;;;;;2.00;0.40;;;14.90;1.00;;;;;;5038106;28;20563;-71
2022/09/26 09:17:39;;;;;;;0.90;0.47;;;14.90;1.00;;;;;;5052251;28;20484;-72
2022/09/26 09:20:15;;;;;;;4.50;0.50;;;15.00;1.00;;;;;;5042622;28;20473;-71
2022/09/26 09:22:59;;;;;;;1.10;0.50;;;14.90;1.00;;;;;;5036697;28;20597;-71
2022/09/26 09:25:32;;;;;;;1.10;0.50;;;14.90;1.00;;;;;;5031772;28;20780;-70
2022/09/26 09:28:19;;;;;;;1.77;0.40;;;14.90;1.00;;;;;;5042476;28;20455;-71
2022/09/26 09:30:50;;;;;;;0.70;0.40;;;14.90;1.00;;;;;;5017601;28;20716;-70
2022/09/26 09:33:19;;;;;;;1.53;0.40;;;15.00;1.00;;;;;;5025795;28;20933;-70
2022/09/26 09:35:49;;;;;;;1.20;0.50;;;14.90;1.00;;;;;;5036134;28;20865;-71
2022/09/26 09:38:19;;;;;;;1.03;0.43;;;15.20;1.00;;;;;;5033245;28;20946;-71
2022/09/26 09:40:51;;;;;;;0.73;0.40;;;15.30;1.00;;;;;;5034153;28;20759;-69
2022/09/26 09:43:26;;;;;;;0.67;0.40;;;15.20;1.00;;;;;;5016151;28;20449;-70
2022/09/26 09:45:57;;;;;;;0.70;0.40;;;15.30;1.00;;;;;;5030283;28;20475;-70
2022/09/26 09:48:27;;;;;;;0.90;0.40;;;15.50;1.00;;;;;;5020234;28;20445;-70
2022/09/26 09:51:12;;;;;;;0.53;0.30;;;15.60;99.90;;;;;;5022037;28;20962;-70
2022/09/26 09:54:14;;;;;;;1.47;0.40;;;15.90;1.00;;;;;;5012016;28;20465;-70
2022/09/26 09:56:54;;;;;;;0.80;0.40;;;15.90;1.00;;;;;;5027126;28;20888;-70
2022/09/26 09:59:41;;;;;;;0.63;0.43;;;16.00;1.00;;;;;;5019601;28;20535;-70
2022/09/26 10:02:21;;;;;;;0.77;0.40;;;15.90;1.00;;;;;;5031977;28;20449;-69
2022/09/26 10:04:56;;;;;;;0.53;0.30;;;16.20;1.00;;;;;;5013918;28;20954;-69
2022/09/26 10:07:27;;;;;;;2.20;0.50;;;16.40;99.90;;;;;;5014683;28;20868;-71
2022/09/26 10:09:53;;;;;;;1.00;0.40;;;16.60;48.30;;;;;;5011375;28;20528;-69
2022/09/26 10:12:29;;;;;;;0.87;0.30;;;16.70;99.90;;;;;;5022029;28;20472;-69
2022/09/26 10:15:02;;;;;;;0.60;0.40;;;16.30;99.90;;;;;;5028881;28;20474;-70
2022/09/26 10:17:29;;;;;;;1.43;0.50;;;16.20;99.90;;;;;;5032332;28;20482;-69
2022/09/26 10:19:57;;;;;;;1.30;0.40;;;16.20;1.00;;;;;;5028525;28;20456;-69
2022/09/26 10:22:32;;;;;;;0.63;0.40;;;16.20;99.90;;;;;;5026130;28;20549;-69
2022/09/26 10:25:02;;;;;;;0.50;0.30;;;16.20;1.00;;;;;;5021296;28;20532;-69
2022/09/26 10:27:36;;;;;;;0.70;0.50;;;16.00;99.90;;;;;;5014927;28;21037;-69
2022/09/26 10:30:20;;;;;;;0.63;0.43;;;16.30;94.30;;;;;;5037041;28;20525;-70
2022/09/26 10:32:50;;;;;;;0.67;0.30;;;16.60;1.00;;;;;;5057366;28;20443;-69
2022/09/26 10:35:19;;;;;;;10.73;6.63;;;16.80;31.70;;;;;;5047090;28;20452;-69
2022/09/26 10:37:50;;;;;;;0.60;0.40;;;17.10;99.90;;;;;;5038572;28;20476;-69
2022/09/26 10:43:30;;;;;;;0.87;0.40;;;17.90;1.00;;;;;;5051036;28;20435;-70
2022/09/26 10:46:08;;;;;;;0.50;0.30;;;17.90;99.90;;;;;;5037504;28;20464;-70
2022/09/26 10:48:42;;;;;;;0.53;0.30;;;17.50;99.90;;;;;;5058227;28;20447;-71
2022/09/26 10:51:10;;;;;;;0.60;0.30;;;17.40;99.90;;;;;;5048935;28;20772;-73
2022/09/26 10:53:41;;;;;;;1.03;0.40;;;17.40;99.90;;;;;;5047568;28;20903;-73
2022/09/26 10:56:12;;;;;;;1.43;0.30;;;17.50;99.90;;;;;;5052844;28;20542;-72
2022/09/26 10:58:42;;;;;;;0.70;0.30;;;17.30;99.90;;;;;;5036583;28;20508;-72
2022/09/26 11:01:20;;;;;;;0.90;0.20;;;17.50;99.90;;;;;;5046229;28;20455;-72
2022/09/26 11:03:48;;;;;;;0.50;0.30;;;17.30;99.90;;;;;;5046276;28;20549;-72
2022/09/26 11:06:39;;;;;;;0.63;0.30;;;17.20;99.90;;;;;;5054742;28;20534;-72
2022/09/26 11:09:10;;;;;;;0.60;0.30;;;17.10;99.90;;;;;;5055561;28;20447;-71
2022/09/26 11:11:39;;;;;;;0.60;0.40;;;17.10;99.90;;;;;;5066811;28;20465;-70
2022/09/26 11:14:07;;;;;;;0.50;0.30;;;17.10;23.40;;;;;;5035260;28;20448;-70
2022/09/26 11:16:50;;;;;;;0.50;0.30;;;17.20;1.00;;;;;;5050384;28;20454;-72
2022/09/26 11:19:28;;;;;;;1.00;0.30;;;16.80;99.90;;;;;;5037988;28;20490;-71
2022/09/26 11:22:01;;;;;;;0.40;0.30;;;16.70;1.00;;;;;;5035036;28;20484;-72
2022/09/26 11:24:36;;;;;;;0.83;0.30;;;16.60;98.10;;;;;;5052661;28;20461;-71
2022/09/26 11:27:17;;;;;;;1.13;0.60;;;17.10;1.00;;;;;;5057989;28;20761;-71
2022/09/26 11:29:52;;;;;;;0.40;0.20;;;17.60;9.40;;;;;;5055347;28;20969;-71
2022/09/26 11:32:27;;;;;;;0.40;0.30;;;17.40;99.90;;;;;;5040236;28;20456;-71
2022/09/26 11:35:01;;;;;;;0.60;0.30;;;17.30;1.00;;;;;;5035985;28;20558;-71
2022/09/26 11:38:04;;;;;;;0.40;0.20;;;17.20;99.90;;;;;;5038084;28;20444;-72
2022/09/26 11:40:54;;;;;;;0.73;0.33;;;17.50;41.80;;;;;;5032591;28;20768;-71
2022/09/26 11:43:37;;;;;;;0.70;0.33;;;18.10;1.00;;;;;;5034456;28;20522;-71
2022/09/26 11:46:26;;;;;;;3.20;0.40;;;17.90;99.90;;;;;;5045905;28;20449;-71
2022/09/26 11:49:19;;;;;;;0.50;0.30;;;17.90;99.90;;;;;;5037681;28;20440;-71
2022/09/26 11:52:03;;;;;;;0.80;0.20;;;17.90;1.00;;;;;;5056782;28;20537;-72
2022/09/26 11:54:58;;;;;;;0.70;0.20;;;17.80;99.90;;;;;;5037591;28;20581;-72
2022/09/26 11:57:37;;;;;;;0.50;0.23;;;17.70;99.90;;;;;;5045533;28;21169;-71
2022/09/26 12:00:14;;;;;;;0.67;0.30;;;17.40;1.00;;;;;;5040380;28;20329;-71
2022/09/26 12:03:22;;;;;;;0.50;0.30;;;17.10;99.90;;;;;;5040248;28;20492;-71
2022/09/26 12:05:55;;;;;;;0.40;0.30;;;16.80;99.90;;;;;;5054431;28;20456;-70
2022/09/26 12:08:40;;;;;;;0.40;0.30;;;16.50;99.90;;;;;;5038205;28;20443;-70
2022/09/26 12:11:21;;;;;;;0.60;0.40;;;16.40;1.00;;;;;;5035325;28;20535;-71
2022/09/26 12:13:57;;;;;;;0.40;0.27;;;16.00;1.00;;;;;;5040170;28;20501;-72
2022/09/26 12:16:29;;;;;;;1.00;0.33;;;16.00;99.90;;;;;;5052747;28;20450;-72
2022/09/26 12:19:06;;;;;;;0.50;0.30;;;15.80;28.70;;;;;;5046718;28;20483;-72
2022/09/26 12:22:27;;;;;;;0.60;0.30;;;15.60;1.00;;;;;;5039552;28;20490;-72
2022/09/26 12:24:40;;;;;;;0.83;0.30;;;15.70;1.00;;;;;;5040753;28;20463;-71
2022/09/26 12:27:16;;;;;;;0.53;0.30;;;15.70;1.00;;;;;;5036989;28;20451;-70
2022/09/26 12:29:53;;;;;;;0.70;0.40;;;15.90;1.00;;;;;;5051495;28;20569;-71
2022/09/26 12:32:31;;;;;;;0.40;0.30;;;16.10;1.00;;;;;;5055080;28;20459;-70
2022/09/26 12:35:41;;;;;;;0.40;0.30;;;16.10;99.90;;;;;;5053193;28;21056;-72
2022/09/26 12:38:31;;;;;;;0.90;0.30;;;16.40;1.00;;;;;;5031427;28;20764;-72
2022/09/26 12:41:13;;;;;;;1.17;0.30;;;16.50;99.90;;;;;;5036982;28;20197;-71
2022/09/26 12:44:06;;;;;;;1.10;0.70;;;16.50;99.90;;;;;;5037794;28;20459;-71
2022/09/26 12:47:11;;;;;;;0.50;0.30;;;16.50;1.00;;;;;;5033348;28;20495;-71
2022/09/26 12:49:57;;;;;;;0.70;0.30;;;16.60;69.00;;;;;;5038396;28;20510;-73
2022/09/26 12:52:40;;;;;;;0.40;0.20;;;16.40;1.00;;;;;;5040109;28;20538;-71
2022/09/26 12:55:21;;;;;;;0.60;0.40;;;16.20;93.40;;;;;;5055880;28;20442;-71
2022/09/26 12:58:04;;;;;;;0.50;0.30;;;16.50;99.90;;;;;;5048463;28;20542;-71
2022/09/26 13:00:39;;;;;;;0.43;0.20;;;16.60;1.00;;;;;;5045971;28;21329;-71
2022/09/26 13:03:31;;;;;;;0.40;0.20;;;16.60;99.90;;;;;;5046214;28;20474;-72
2022/09/26 13:06:37;;;;;;;0.77;0.27;;;16.60;99.90;;;;;;5047888;28;20452;-72
2022/09/26 13:09:19;;;;;;;0.53;0.30;;;16.50;99.90;;;;;;5039701;28;20956;-70
2022/09/26 13:11:56;;;;;;;0.40;0.20;;;16.80;99.90;;;;;;5060462;28;20532;-69
2022/09/26 13:14:59;;;;;;;0.30;0.10;;;16.60;1.00;;;;;;5065576;28;20448;-69
2022/09/26 13:17:32;;;;;;;34.27;21.80;;;16.40;9.50;;;;;;5035895;28;20467;-70
2022/09/26 13:20:03;;;;;;;0.40;0.30;;;16.50;99.90;;;;;;5042723;28;20524;-70
2022/09/26 13:22:36;;;;;;;0.30;0.20;;;16.10;1.00;;;;;;5049339;28;20585;-71
2022/09/26 13:25:16;;;;;;;0.30;0.20;;;16.00;1.00;;;;;;5041281;28;20600;-70
2022/09/26 13:27:50;;;;;;;0.40;0.20;;;15.90;99.90;;;;;;5033892;28;20452;-70
2022/09/26 13:30:19;;;;;;;0.40;0.20;;;15.80;1.00;;;;;;5030220;28;20476;-69